sensor_id;sensor_type;location;lat;lon;timestamp;pressure;altitude;pressure_sealevel;temperature
43292;BMP280;28754;47.700;7.924;2022-08-02T00:01:53;91776.28;;;20.63
43292;BMP280;28754;47.700;7.924;2022-08-02T00:04:40;91783.31;;;20.54
43292;BMP280;28754;47.700;7.924;2022-08-02T00:07:27;91775.03;;;20.43
43292;BMP280;28754;47.700;7.924;2022-08-02T00:10:13;91779.00;;;20.41
43292;BMP280;28754;47.700;7.924;2022-08-02T00:13:00;91774.25;;;20.34
43292;BMP280;28754;47.700;7.924;2022-08-02T00:15:47;91769.97;;;20.30
43292;BMP280;28754;47.700;7.924;2022-08-02T00:18:33;91765.81;;;20.21
43292;BMP280;28754;47.700;7.924;2022-08-02T00:21:20;91769.34;;;20.16
43292;BMP280;28754;47.700;7.924;2022-08-02T00:24:07;91764.75;;;20.05
43292;BMP280;28754;47.700;7.924;2022-08-02T00:26:54;91759.69;;;20.00
43292;BMP280;28754;47.700;7.924;2022-08-02T00:29:40;91768.44;;;20.04
43292;BMP280;28754;47.700;7.924;2022-08-02T00:32:27;91773.19;;;20.10
43292;BMP280;28754;47.700;7.924;2022-08-02T00:35:14;91781.00;;;20.19
43292;BMP280;28754;47.700;7.924;2022-08-02T00:38:02;91779.63;;;20.21
43292;BMP280;28754;47.700;7.924;2022-08-02T00:40:51;91774.25;;;20.26
43292;BMP280;28754;47.700;7.924;2022-08-02T00:43:38;91767.22;;;20.27
43292;BMP280;28754;47.700;7.924;2022-08-02T00:46:25;91778.53;;;20.22
43292;BMP280;28754;47.700;7.924;2022-08-02T00:49:12;91765.22;;;20.15
43292;BMP280;28754;47.700;7.924;2022-08-02T00:52:00;91769.19;;;20.04
43292;BMP280;28754;47.700;7.924;2022-08-02T00:54:47;91765.03;;;20.03
43292;BMP280;28754;47.700;7.924;2022-08-02T00:57:33;91760.47;;;20.09
43292;BMP280;28754;47.700;7.924;2022-08-02T01:00:21;91759.53;;;20.05
43292;BMP280;28754;47.700;7.924;2022-08-02T01:03:07;91759.84;;;20.03
43292;BMP280;28754;47.700;7.924;2022-08-02T01:05:54;91749.44;;;19.95
43292;BMP280;28754;47.700;7.924;2022-08-02T01:08:41;91752.47;;;19.89
43292;BMP280;28754;47.700;7.924;2022-08-02T01:11:29;91747.13;;;19.85
43292;BMP280;28754;47.700;7.924;2022-08-02T01:14:16;91746.50;;;19.80
43292;BMP280;28754;47.700;7.924;2022-08-02T01:34:39;91748.38;;;20.04
43292;BMP280;28754;47.700;7.924;2022-08-02T01:37:48;91738.56;;;20.01
43292;BMP280;28754;47.700;7.924;2022-08-02T01:40:38;91740.13;;;20.02
43292;BMP280;28754;47.700;7.924;2022-08-02T01:43:30;91734.00;;;19.98
43292;BMP280;28754;47.700;7.924;2022-08-02T01:46:20;91736.59;;;19.90
43292;BMP280;28754;47.700;7.924;2022-08-02T01:49:13;91737.66;;;19.81
43292;BMP280;28754;47.700;7.924;2022-08-02T01:52:02;91739.78;;;19.79
43292;BMP280;28754;47.700;7.924;2022-08-02T01:55:19;91730.16;;;19.88
43292;BMP280;28754;47.700;7.924;2022-08-02T01:58:09;91731.69;;;19.89
43292;BMP280;28754;47.700;7.924;2022-08-02T02:01:00;91719.91;;;19.83
43292;BMP280;28754;47.700;7.924;2022-08-02T02:03:48;91722.34;;;19.79
43292;BMP280;28754;47.700;7.924;2022-08-02T02:06:39;91716.66;;;19.77
43292;BMP280;28754;47.700;7.924;2022-08-02T02:09:30;91713.59;;;19.75
43292;BMP280;28754;47.700;7.924;2022-08-02T02:12:22;91713.44;;;19.72
43292;BMP280;28754;47.700;7.924;2022-08-02T02:15:11;91710.97;;;19.67
43292;BMP280;28754;47.700;7.924;2022-08-02T02:18:01;91719.09;;;19.65
43292;BMP280;28754;47.700;7.924;2022-08-02T02:20:48;91713.44;;;19.63
43292;BMP280;28754;47.700;7.924;2022-08-02T02:23:35;91719.81;;;19.58
43292;BMP280;28754;47.700;7.924;2022-08-02T02:26:22;91719.97;;;19.53
43292;BMP280;28754;47.700;7.924;2022-08-02T02:29:10;91720.56;;;19.50
43292;BMP280;28754;47.700;7.924;2022-08-02T02:31:59;91716.44;;;19.49
43292;BMP280;28754;47.700;7.924;2022-08-02T02:34:49;91713.22;;;19.52
43292;BMP280;28754;47.700;7.924;2022-08-02T02:37:37;91706.06;;;19.49
43292;BMP280;28754;47.700;7.924;2022-08-02T02:40:28;91713.41;;;19.55
43292;BMP280;28754;47.700;7.924;2022-08-02T02:43:16;91698.75;;;19.59
43292;BMP280;28754;47.700;7.924;2022-08-02T02:46:05;91694.91;;;19.65
43292;BMP280;28754;47.700;7.924;2022-08-02T02:48:52;91690.66;;;19.69
43292;BMP280;28754;47.700;7.924;2022-08-02T02:51:40;91693.56;;;19.76
43292;BMP280;28754;47.700;7.924;2022-08-02T02:54:29;91696.34;;;19.79
43292;BMP280;28754;47.700;7.924;2022-08-02T02:57:17;91699.13;;;19.83
43292;BMP280;28754;47.700;7.924;2022-08-02T03:00:08;91700.50;;;19.89
43292;BMP280;28754;47.700;7.924;2022-08-02T03:02:55;91688.41;;;19.93
43292;BMP280;28754;47.700;7.924;2022-08-02T03:05:42;91679.88;;;20.00
43292;BMP280;28754;47.700;7.924;2022-08-02T03:08:29;91679.59;;;20.10
43292;BMP280;28754;47.700;7.924;2022-08-02T03:11:16;91682.03;;;20.15
43292;BMP280;28754;47.700;7.924;2022-08-02T03:14:08;91683.41;;;20.13
43292;BMP280;28754;47.700;7.924;2022-08-02T03:16:55;91689.81;;;20.07
43292;BMP280;28754;47.700;7.924;2022-08-02T03:19:41;91686.91;;;20.08
43292;BMP280;28754;47.700;7.924;2022-08-02T03:22:29;91684.16;;;20.13
43292;BMP280;28754;47.700;7.924;2022-08-02T03:25:17;91687.38;;;20.19
43292;BMP280;28754;47.700;7.924;2022-08-02T03:28:04;91683.06;;;20.23
43292;BMP280;28754;47.700;7.924;2022-08-02T03:30:51;91684.75;;;20.27
43292;BMP280;28754;47.700;7.924;2022-08-02T03:33:38;91674.81;;;20.29
43292;BMP280;28754;47.700;7.924;2022-08-02T03:36:29;91681.56;;;20.30
43292;BMP280;28754;47.700;7.924;2022-08-02T03:39:19;91673.75;;;20.30
43292;BMP280;28754;47.700;7.924;2022-08-02T03:42:07;91683.53;;;20.33
43292;BMP280;28754;47.700;7.924;2022-08-02T03:44:58;91678.78;;;20.35
43292;BMP280;28754;47.700;7.924;2022-08-02T03:47:45;91676.66;;;20.37
43292;BMP280;28754;47.700;7.924;2022-08-02T03:50:32;91676.66;;;20.37
43292;BMP280;28754;47.700;7.924;2022-08-02T03:53:20;91670.06;;;20.31
43292;BMP280;28754;47.700;7.924;2022-08-02T03:56:09;91675.28;;;20.31
43292;BMP280;28754;47.700;7.924;2022-08-02T03:59:11;91671.63;;;20.32
43292;BMP280;28754;47.700;7.924;2022-08-02T04:01:58;91665.31;;;20.33
43292;BMP280;28754;47.700;7.924;2022-08-02T04:04:45;91663.81;;;20.32
43292;BMP280;28754;47.700;7.924;2022-08-02T04:07:31;91663.66;;;20.29
43292;BMP280;28754;47.700;7.924;2022-08-02T04:10:18;91661.81;;;20.29
43292;BMP280;28754;47.700;7.924;2022-08-02T04:13:05;91660.28;;;20.28
43292;BMP280;28754;47.700;7.924;2022-08-02T04:15:57;91660.28;;;20.28
43292;BMP280;28754;47.700;7.924;2022-08-02T04:18:53;91671.63;;;20.32
43292;BMP280;28754;47.700;7.924;2022-08-02T04:21:45;91662.72;;;20.33
43292;BMP280;28754;47.700;7.924;2022-08-02T04:24:48;91667.16;;;20.32
43292;BMP280;28754;47.700;7.924;2022-08-02T04:27:36;91670.81;;;20.31
43292;BMP280;28754;47.700;7.924;2022-08-02T04:30:24;91668.56;;;20.30
43292;BMP280;28754;47.700;7.924;2022-08-02T04:33:11;91668.56;;;20.30
43292;BMP280;28754;47.700;7.924;2022-08-02T04:35:58;91671.16;;;20.30
43292;BMP280;28754;47.700;7.924;2022-08-02T04:38:48;91679.09;;;20.33
43292;BMP280;28754;47.700;7.924;2022-08-02T04:41:40;91681.84;;;20.37
43292;BMP280;28754;47.700;7.924;2022-08-02T04:44:27;91673.41;;;20.40
43292;BMP280;28754;47.700;7.924;2022-08-02T04:47:14;91676.19;;;20.43
43292;BMP280;28754;47.700;7.924;2022-08-02T04:50:02;91675.56;;;20.46
43292;BMP280;28754;47.700;7.924;2022-08-02T04:52:49;91681.22;;;20.48
43292;BMP280;28754;47.700;7.924;2022-08-02T04:55:35;91679.53;;;20.52
43292;BMP280;28754;47.700;7.924;2022-08-02T04:58:22;91682.13;;;20.52
43292;BMP280;28754;47.700;7.924;2022-08-02T05:01:09;91684.91;;;20.56
43292;BMP280;28754;47.700;7.924;2022-08-02T05:03:55;91693.66;;;20.60
43292;BMP280;28754;47.700;7.924;2022-08-02T05:06:42;91695.31;;;20.64
43292;BMP280;28754;47.700;7.924;2022-08-02T05:09:29;91699.28;;;20.70
43292;BMP280;28754;47.700;7.924;2022-08-02T05:12:15;91703.56;;;20.74
43292;BMP280;28754;47.700;7.924;2022-08-02T05:15:02;91705.38;;;20.82
43292;BMP280;28754;47.700;7.924;2022-08-02T05:17:49;91706.75;;;20.88
43292;BMP280;28754;47.700;7.924;2022-08-02T05:20:36;91714.38;;;20.93
43292;BMP280;28754;47.700;7.924;2022-08-02T05:23:22;91708.56;;;20.96
43292;BMP280;28754;47.700;7.924;2022-08-02T05:26:09;91703.19;;;21.01
43292;BMP280;28754;47.700;7.924;2022-08-02T05:28:56;91707.75;;;21.04
43292;BMP280;28754;47.700;7.924;2022-08-02T05:31:42;91706.06;;;21.08
43292;BMP280;28754;47.700;7.924;2022-08-02T05:34:31;91701.31;;;21.10
43292;BMP280;28754;47.700;7.924;2022-08-02T05:37:18;91699.16;;;21.12
43292;BMP280;28754;47.700;7.924;2022-08-02T05:40:05;91704.53;;;21.15
43292;BMP280;28754;47.700;7.924;2022-08-02T05:42:54;91701.28;;;21.18
43292;BMP280;28754;47.700;7.924;2022-08-02T05:45:41;91705.88;;;21.21
43292;BMP280;28754;47.700;7.924;2022-08-02T05:48:28;91707.09;;;21.24
43292;BMP280;28754;47.700;7.924;2022-08-02T05:51:28;91701.56;;;21.25
43292;BMP280;28754;47.700;7.924;2022-08-02T05:54:22;91700.63;;;21.30
43292;BMP280;28754;47.700;7.924;2022-08-02T06:00:13;91712.25;;;21.40
43292;BMP280;28754;47.700;7.924;2022-08-02T06:03:38;91704.59;;;21.44
43292;BMP280;28754;47.700;7.924;2022-08-02T06:06:28;91708.41;;;21.46
43292;BMP280;28754;47.700;7.924;2022-08-02T06:09:16;91707.34;;;21.47
43292;BMP280;28754;47.700;7.924;2022-08-02T06:12:06;91708.84;;;21.48
43292;BMP280;28754;47.700;7.924;2022-08-02T06:14:55;91712.38;;;21.52
43292;BMP280;28754;47.700;7.924;2022-08-02T06:17:44;91711.28;;;21.53
43292;BMP280;28754;47.700;7.924;2022-08-02T06:20:31;91710.41;;;21.49
43292;BMP280;28754;47.700;7.924;2022-08-02T06:23:22;91711.19;;;21.41
43292;BMP280;28754;47.700;7.924;2022-08-02T06:26:12;91712.28;;;21.32
43292;BMP280;28754;47.700;7.924;2022-08-02T06:28:59;91714.28;;;21.27
43292;BMP280;28754;47.700;7.924;2022-08-02T06:31:46;91706.78;;;21.25
43292;BMP280;28754;47.700;7.924;2022-08-02T06:34:38;91714.44;;;21.30
43292;BMP280;28754;47.700;7.924;2022-08-02T06:37:43;91712.88;;;21.37
43292;BMP280;28754;47.700;7.924;2022-08-02T06:40:44;91715.16;;;21.47
43292;BMP280;28754;47.700;7.924;2022-08-02T06:44:00;91717.84;;;21.59
43292;BMP280;28754;47.700;7.924;2022-08-02T06:46:47;91716.56;;;21.73
43292;BMP280;28754;47.700;7.924;2022-08-02T06:49:34;91712.81;;;21.83
43292;BMP280;28754;47.700;7.924;2022-08-02T06:52:27;91718.03;;;21.83
43292;BMP280;28754;47.700;7.924;2022-08-02T06:55:14;91719.81;;;21.91
43292;BMP280;28754;47.700;7.924;2022-08-02T06:58:00;91726.69;;;21.95
43292;BMP280;28754;47.700;7.924;2022-08-02T07:00:48;91722.69;;;21.98
43292;BMP280;28754;47.700;7.924;2022-08-02T07:03:40;91724.53;;;21.97
43292;BMP280;28754;47.700;7.924;2022-08-02T07:06:27;91734.63;;;22.07
43292;BMP280;28754;47.700;7.924;2022-08-02T07:09:14;91727.38;;;22.12
43292;BMP280;28754;47.700;7.924;2022-08-02T07:12:01;91730.69;;;22.21
43292;BMP280;28754;47.700;7.924;2022-08-02T07:14:47;91731.06;;;22.32
43292;BMP280;28754;47.700;7.924;2022-08-02T07:17:35;91733.81;;;22.35
43292;BMP280;28754;47.700;7.924;2022-08-02T07:20:22;91728.41;;;22.40
43292;BMP280;28754;47.700;7.924;2022-08-02T07:23:08;91732.53;;;22.41
43292;BMP280;28754;47.700;7.924;2022-08-02T07:25:55;91718.97;;;22.47
43292;BMP280;28754;47.700;7.924;2022-08-02T07:28:41;91718.34;;;22.50
43292;BMP280;28754;47.700;7.924;2022-08-02T07:31:28;91733.25;;;22.50
43292;BMP280;28754;47.700;7.924;2022-08-02T07:34:15;91743.50;;;22.55
43292;BMP280;28754;47.700;7.924;2022-08-02T07:37:02;91738.41;;;22.58
43292;BMP280;28754;47.700;7.924;2022-08-02T07:39:49;91737.88;;;22.65
43292;BMP280;28754;47.700;7.924;2022-08-02T07:42:35;91737.69;;;22.70
43292;BMP280;28754;47.700;7.924;2022-08-02T07:45:23;91730.47;;;22.67
43292;BMP280;28754;47.700;7.924;2022-08-02T07:48:10;91727.00;;;22.63
43292;BMP280;28754;47.700;7.924;2022-08-02T07:50:56;91728.06;;;22.62
43292;BMP280;28754;47.700;7.924;2022-08-02T07:53:43;91729.03;;;22.57
43292;BMP280;28754;47.700;7.924;2022-08-02T07:56:30;91725.22;;;22.55
43292;BMP280;28754;47.700;7.924;2022-08-02T07:59:16;91725.66;;;22.57
43292;BMP280;28754;47.700;7.924;2022-08-02T08:02:03;91731.34;;;22.59
43292;BMP280;28754;47.700;7.924;2022-08-02T08:04:51;91727.44;;;22.65
43292;BMP280;28754;47.700;7.924;2022-08-02T08:07:38;91731.19;;;22.75
43292;BMP280;28754;47.700;7.924;2022-08-02T08:10:25;91732.94;;;22.83
43292;BMP280;28754;47.700;7.924;2022-08-02T08:13:11;91722.66;;;22.87
43292;BMP280;28754;47.700;7.924;2022-08-02T08:15:58;91745.84;;;22.88
43292;BMP280;28754;47.700;7.924;2022-08-02T08:18:45;91733.34;;;22.94
43292;BMP280;28754;47.700;7.924;2022-08-02T08:21:31;91736.53;;;22.99
43292;BMP280;28754;47.700;7.924;2022-08-02T08:24:20;91740.13;;;23.07
43292;BMP280;28754;47.700;7.924;2022-08-02T08:27:07;91741.22;;;23.06
43292;BMP280;28754;47.700;7.924;2022-08-02T08:30:00;91742.59;;;23.03
43292;BMP280;28754;47.700;7.924;2022-08-02T08:32:46;91741.44;;;23.12
43292;BMP280;28754;47.700;7.924;2022-08-02T08:35:34;91737.22;;;23.20
43292;BMP280;28754;47.700;7.924;2022-08-02T08:38:21;91738.97;;;23.28
43292;BMP280;28754;47.700;7.924;2022-08-02T08:41:08;91747.03;;;23.35
43292;BMP280;28754;47.700;7.924;2022-08-02T08:43:54;91738.56;;;23.49
43292;BMP280;28754;47.700;7.924;2022-08-02T08:46:42;91734.38;;;23.69
43292;BMP280;28754;47.700;7.924;2022-08-02T08:49:46;91729.06;;;23.89
43292;BMP280;28754;47.700;7.924;2022-08-02T08:52:41;91720.75;;;23.87
43292;BMP280;28754;47.700;7.924;2022-08-02T08:55:30;91723.69;;;23.85
43292;BMP280;28754;47.700;7.924;2022-08-02T08:58:18;91716.59;;;23.86
43292;BMP280;28754;47.700;7.924;2022-08-02T09:01:05;91719.78;;;23.91
43292;BMP280;28754;47.700;7.924;2022-08-02T09:03:52;91726.19;;;23.94
43292;BMP280;28754;47.700;7.924;2022-08-02T09:06:39;91722.72;;;24.02
43292;BMP280;28754;47.700;7.924;2022-08-02T09:09:26;91724.78;;;24.08
43292;BMP280;28754;47.700;7.924;2022-08-02T09:12:18;91732.16;;;24.18
43292;BMP280;28754;47.700;7.924;2022-08-02T09:15:10;91724.34;;;24.30
43292;BMP280;28754;47.700;7.924;2022-08-02T09:17:56;91728.78;;;24.29
43292;BMP280;28754;47.700;7.924;2022-08-02T09:20:57;91726.81;;;24.38
43292;BMP280;28754;47.700;7.924;2022-08-02T09:23:48;91730.47;;;24.61
43292;BMP280;28754;47.700;7.924;2022-08-02T09:26:35;91727.31;;;24.82
43292;BMP280;28754;47.700;7.924;2022-08-02T09:29:23;91726.44;;;24.90
43292;BMP280;28754;47.700;7.924;2022-08-02T09:32:10;91724.44;;;24.99
43292;BMP280;28754;47.700;7.924;2022-08-02T09:34:56;91728.34;;;25.05
43292;BMP280;28754;47.700;7.924;2022-08-02T09:37:43;91726.63;;;24.97
43292;BMP280;28754;47.700;7.924;2022-08-02T09:40:35;91724.59;;;24.91
43292;BMP280;28754;47.700;7.924;2022-08-02T09:43:41;91715.44;;;24.85
43292;BMP280;28754;47.700;7.924;2022-08-02T09:46:31;91718.06;;;24.85
43292;BMP280;28754;47.700;7.924;2022-08-02T09:49:18;91725.81;;;24.82
43292;BMP280;28754;47.700;7.924;2022-08-02T09:52:05;91723.75;;;24.75
43292;BMP280;28754;47.700;7.924;2022-08-02T09:54:52;91725.63;;;24.75
43292;BMP280;28754;47.700;7.924;2022-08-02T09:57:39;91721.53;;;24.89
43292;BMP280;28754;47.700;7.924;2022-08-02T10:00:26;91714.41;;;25.01
43292;BMP280;28754;47.700;7.924;2022-08-02T10:03:13;91715.25;;;25.05
43292;BMP280;28754;47.700;7.924;2022-08-02T10:06:00;91720.25;;;25.10
43292;BMP280;28754;47.700;7.924;2022-08-02T10:08:47;91706.75;;;25.23
43292;BMP280;28754;47.700;7.924;2022-08-02T10:11:35;91713.94;;;25.26
43292;BMP280;28754;47.700;7.924;2022-08-02T10:14:22;91707.94;;;25.26
43292;BMP280;28754;47.700;7.924;2022-08-02T10:17:10;91705.50;;;25.33
43292;BMP280;28754;47.700;7.924;2022-08-02T10:19:57;91708.38;;;25.43
43292;BMP280;28754;47.700;7.924;2022-08-02T10:22:44;91708.72;;;25.42
43292;BMP280;28754;47.700;7.924;2022-08-02T10:25:32;91698.91;;;25.39
43292;BMP280;28754;47.700;7.924;2022-08-02T10:28:28;91708.28;;;25.40
43292;BMP280;28754;47.700;7.924;2022-08-02T10:31:23;91705.22;;;25.38
43292;BMP280;28754;47.700;7.924;2022-08-02T10:34:16;91711.00;;;25.43
43292;BMP280;28754;47.700;7.924;2022-08-02T10:37:06;91704.94;;;25.54
43292;BMP280;28754;47.700;7.924;2022-08-02T10:39:56;91705.09;;;25.61
43292;BMP280;28754;47.700;7.924;2022-08-02T10:42:56;91702.63;;;25.68
43292;BMP280;28754;47.700;7.924;2022-08-02T10:45:46;91706.69;;;25.81
43292;BMP280;28754;47.700;7.924;2022-08-02T10:49:07;91717.00;;;25.89
43292;BMP280;28754;47.700;7.924;2022-08-02T10:52:03;91709.22;;;25.93
43292;BMP280;28754;47.700;7.924;2022-08-02T10:55:00;91701.50;;;26.00
43292;BMP280;28754;47.700;7.924;2022-08-02T10:58:25;91706.41;;;26.01
43292;BMP280;28754;47.700;7.924;2022-08-02T11:01:30;91699.72;;;26.04
43292;BMP280;28754;47.700;7.924;2022-08-02T11:04:21;91699.72;;;26.04
43292;BMP280;28754;47.700;7.924;2022-08-02T11:07:14;91696.94;;;25.97
43292;BMP280;28754;47.700;7.924;2022-08-02T11:10:38;91702.84;;;25.94
43292;BMP280;28754;47.700;7.924;2022-08-02T11:13:25;91702.03;;;25.90
43292;BMP280;28754;47.700;7.924;2022-08-02T11:16:12;91695.00;;;25.94
43292;BMP280;28754;47.700;7.924;2022-08-02T11:19:01;91700.66;;;25.96
43292;BMP280;28754;47.700;7.924;2022-08-02T11:22:10;91707.13;;;25.98
43292;BMP280;28754;47.700;7.924;2022-08-02T11:28:10;91692.59;;;26.04
43292;BMP280;28754;47.700;7.924;2022-08-02T11:30:59;91689.97;;;26.04
43292;BMP280;28754;47.700;7.924;2022-08-02T11:33:49;91680.31;;;26.08
43292;BMP280;28754;47.700;7.924;2022-08-02T11:36:48;91680.03;;;26.13
43292;BMP280;28754;47.700;7.924;2022-08-02T11:39:36;91687.25;;;26.16
43292;BMP280;28754;47.700;7.924;2022-08-02T11:42:34;91686.84;;;26.14
43292;BMP280;28754;47.700;7.924;2022-08-02T11:45:25;91686.59;;;26.19
43292;BMP280;28754;47.700;7.924;2022-08-02T11:48:28;91683.63;;;26.21
43292;BMP280;28754;47.700;7.924;2022-08-02T11:51:17;91683.72;;;26.24
43292;BMP280;28754;47.700;7.924;2022-08-02T11:54:04;91687.75;;;26.37
43292;BMP280;28754;47.700;7.924;2022-08-02T11:56:51;91686.28;;;26.39
43292;BMP280;28754;47.700;7.924;2022-08-02T11:59:39;91693.75;;;26.37
43292;BMP280;28754;47.700;7.924;2022-08-02T12:02:29;91683.09;;;26.30
43292;BMP280;28754;47.700;7.924;2022-08-02T12:05:22;91674.88;;;26.32
43292;BMP280;28754;47.700;7.924;2022-08-02T12:08:12;91684.94;;;26.30
43292;BMP280;28754;47.700;7.924;2022-08-02T12:11:02;91683.59;;;26.36
43292;BMP280;28754;47.700;7.924;2022-08-02T12:13:49;91686.72;;;26.41
43292;BMP280;28754;47.700;7.924;2022-08-02T12:16:39;91684.91;;;26.45
43292;BMP280;28754;47.700;7.924;2022-08-02T12:19:44;91667.75;;;26.51
43292;BMP280;28754;47.700;7.924;2022-08-02T12:22:31;91669.84;;;26.61
43292;BMP280;28754;47.700;7.924;2022-08-02T12:25:22;91672.59;;;26.68
43292;BMP280;28754;47.700;7.924;2022-08-02T12:28:14;91674.91;;;26.69
43292;BMP280;28754;47.700;7.924;2022-08-02T12:31:01;91673.59;;;26.79
43292;BMP280;28754;47.700;7.924;2022-08-02T12:33:53;91668.59;;;26.74
43292;BMP280;28754;47.700;7.924;2022-08-02T12:36:40;91663.56;;;26.65
43292;BMP280;28754;47.700;7.924;2022-08-02T12:39:44;91661.22;;;26.60
43292;BMP280;28754;47.700;7.924;2022-08-02T12:42:49;91657.56;;;26.65
43292;BMP280;28754;47.700;7.924;2022-08-02T12:45:52;91666.47;;;26.60
43292;BMP280;28754;47.700;7.924;2022-08-02T12:48:39;91662.03;;;26.64
43292;BMP280;28754;47.700;7.924;2022-08-02T12:51:30;91666.81;;;26.78
43292;BMP280;28754;47.700;7.924;2022-08-02T12:54:34;91656.03;;;26.83
43292;BMP280;28754;47.700;7.924;2022-08-02T12:57:23;91653.75;;;26.81
43292;BMP280;28754;47.700;7.924;2022-08-02T13:00:23;91649.66;;;26.84
43292;BMP280;28754;47.700;7.924;2022-08-02T13:03:11;91649.94;;;26.97
43292;BMP280;28754;47.700;7.924;2022-08-02T13:05:58;91641.19;;;27.12
43292;BMP280;28754;47.700;7.924;2022-08-02T13:08:44;91641.59;;;27.14
43292;BMP280;28754;47.700;7.924;2022-08-02T13:11:31;91640.03;;;27.10
43292;BMP280;28754;47.700;7.924;2022-08-02T13:14:18;91640.38;;;27.08
43292;BMP280;28754;47.700;7.924;2022-08-02T13:17:05;91646.03;;;27.10
43292;BMP280;28754;47.700;7.924;2022-08-02T13:19:51;91632.19;;;27.13
43292;BMP280;28754;47.700;7.924;2022-08-02T13:22:38;91635.28;;;27.19
43292;BMP280;28754;47.700;7.924;2022-08-02T13:25:25;91639.09;;;27.21
43292;BMP280;28754;47.700;7.924;2022-08-02T13:28:11;91641.38;;;27.23
43292;BMP280;28754;47.700;7.924;2022-08-02T13:30:58;91632.53;;;27.34
43292;BMP280;28754;47.700;7.924;2022-08-02T13:33:45;91636.06;;;27.41
43292;BMP280;28754;47.700;7.924;2022-08-02T13:36:33;91630.94;;;27.48
43292;BMP280;28754;47.700;7.924;2022-08-02T13:39:20;91636.59;;;27.50
43292;BMP280;28754;47.700;7.924;2022-08-02T13:42:07;91633.97;;;27.50
43292;BMP280;28754;47.700;7.924;2022-08-02T13:44:54;91635.06;;;27.49
43292;BMP280;28754;47.700;7.924;2022-08-02T13:47:44;91633.38;;;27.38
43292;BMP280;28754;47.700;7.924;2022-08-02T13:50:31;91628.69;;;27.28
43292;BMP280;28754;47.700;7.924;2022-08-02T13:53:18;91626.34;;;27.23
43292;BMP280;28754;47.700;7.924;2022-08-02T13:56:05;91621.91;;;27.27
43292;BMP280;28754;47.700;7.924;2022-08-02T13:58:52;91634.91;;;27.39
43292;BMP280;28754;47.700;7.924;2022-08-02T14:01:39;91634.63;;;27.44
43292;BMP280;28754;47.700;7.924;2022-08-02T14:04:26;91629.88;;;27.53
43292;BMP280;28754;47.700;7.924;2022-08-02T14:07:13;91630.81;;;27.63
43292;BMP280;28754;47.700;7.924;2022-08-02T14:10:01;91623.47;;;27.76
43292;BMP280;28754;47.700;7.924;2022-08-02T14:12:48;91616.84;;;27.85
43292;BMP280;28754;47.700;7.924;2022-08-02T14:15:35;91607.53;;;27.91
43292;BMP280;28754;47.700;7.924;2022-08-02T14:18:21;91619.16;;;27.90
43292;BMP280;28754;47.700;7.924;2022-08-02T14:21:08;91619.16;;;27.90
43292;BMP280;28754;47.700;7.924;2022-08-02T14:23:55;91611.47;;;27.78
43292;BMP280;28754;47.700;7.924;2022-08-02T14:26:43;91606.22;;;27.78
43292;BMP280;28754;47.700;7.924;2022-08-02T14:29:30;91606.31;;;27.85
43292;BMP280;28754;47.700;7.924;2022-08-02T14:32:17;91606.00;;;27.90
43292;BMP280;28754;47.700;7.924;2022-08-02T14:35:04;91602.78;;;28.00
43292;BMP280;28754;47.700;7.924;2022-08-02T14:37:51;91604.09;;;28.13
43292;BMP280;28754;47.700;7.924;2022-08-02T14:40:37;91601.94;;;28.22
43292;BMP280;28754;47.700;7.924;2022-08-02T14:43:24;91611.16;;;28.34
43292;BMP280;28754;47.700;7.924;2022-08-02T14:46:31;91616.91;;;28.43
43292;BMP280;28754;47.700;7.924;2022-08-02T14:49:17;91615.28;;;28.35
43292;BMP280;28754;47.700;7.924;2022-08-02T14:52:04;91614.66;;;28.16
43292;BMP280;28754;47.700;7.924;2022-08-02T14:54:52;91605.69;;;28.21
43292;BMP280;28754;47.700;7.924;2022-08-02T14:57:39;91610.00;;;28.35
43292;BMP280;28754;47.700;7.924;2022-08-02T15:00:26;91606.75;;;28.45
43292;BMP280;28754;47.700;7.924;2022-08-02T15:03:12;91593.25;;;28.50
43292;BMP280;28754;47.700;7.924;2022-08-02T15:05:59;91603.41;;;28.48
43292;BMP280;28754;47.700;7.924;2022-08-02T15:08:46;91597.38;;;28.48
43292;BMP280;28754;47.700;7.924;2022-08-02T15:11:33;91599.69;;;28.53
43292;BMP280;28754;47.700;7.924;2022-08-02T15:14:21;91596.03;;;28.57
43292;BMP280;28754;47.700;7.924;2022-08-02T15:17:08;91597.06;;;28.53
43292;BMP280;28754;47.700;7.924;2022-08-02T15:19:54;91595.00;;;28.39
43292;BMP280;28754;47.700;7.924;2022-08-02T15:22:41;91596.50;;;28.37
43292;BMP280;28754;47.700;7.924;2022-08-02T15:25:28;91583.00;;;28.42
43292;BMP280;28754;47.700;7.924;2022-08-02T15:28:15;91591.69;;;28.42
43292;BMP280;28754;47.700;7.924;2022-08-02T15:31:01;91595.81;;;28.43
43292;BMP280;28754;47.700;7.924;2022-08-02T15:33:48;91594.00;;;28.47
43292;BMP280;28754;47.700;7.924;2022-08-02T15:36:35;91586.16;;;28.54
43292;BMP280;28754;47.700;7.924;2022-08-02T15:39:22;91597.53;;;28.58
43292;BMP280;28754;47.700;7.924;2022-08-02T15:42:08;91586.25;;;28.61
43292;BMP280;28754;47.700;7.924;2022-08-02T15:44:55;91595.66;;;28.59
43292;BMP280;28754;47.700;7.924;2022-08-02T15:47:44;91593.81;;;28.63
43292;BMP280;28754;47.700;7.924;2022-08-02T15:50:30;91588.22;;;28.67
43292;BMP280;28754;47.700;7.924;2022-08-02T15:53:17;91592.41;;;28.72
43292;BMP280;28754;47.700;7.924;2022-08-02T15:56:04;91592.81;;;28.74
43292;BMP280;28754;47.700;7.924;2022-08-02T15:58:51;91592.41;;;28.72
43292;BMP280;28754;47.700;7.924;2022-08-02T16:01:38;91592.34;;;28.65
43292;BMP280;28754;47.700;7.924;2022-08-02T16:04:24;91587.03;;;28.62
43292;BMP280;28754;47.700;7.924;2022-08-02T16:07:11;91593.41;;;28.57
43292;BMP280;28754;47.700;7.924;2022-08-02T16:09:58;91592.25;;;28.58
43292;BMP280;28754;47.700;7.924;2022-08-02T16:12:44;91583.53;;;28.54
43292;BMP280;28754;47.700;7.924;2022-08-02T16:15:31;91590.63;;;28.50
43292;BMP280;28754;47.700;7.924;2022-08-02T16:18:18;91585.75;;;28.49
43292;BMP280;28754;47.700;7.924;2022-08-02T16:21:05;91586.84;;;28.48
43292;BMP280;28754;47.700;7.924;2022-08-02T16:23:53;91586.75;;;28.41
43292;BMP280;28754;47.700;7.924;2022-08-02T16:26:43;91586.69;;;28.34
43292;BMP280;28754;47.700;7.924;2022-08-02T16:29:30;91585.53;;;28.32
43292;BMP280;28754;47.700;7.924;2022-08-02T16:32:16;91581.63;;;28.22
43292;BMP280;28754;47.700;7.924;2022-08-02T16:35:03;91582.72;;;28.18
43292;BMP280;28754;47.700;7.924;2022-08-02T16:37:53;91580.69;;;28.08
43292;BMP280;28754;47.700;7.924;2022-08-02T16:40:39;91577.13;;;27.97